Time;durP1;ratioP1;P1;durP2;ratioP2;P2;SDS_P1;SDS_P2;PMS_P1;PMS_P2;Temp;Humidity;BMP_temperature;BMP_pressure;BME280_temperature;BME280_humidity;BME280_pressure;Samples;Min_cycle;Max_cycle;Signal;HPM_P1;HPM_P2
2022/10/17 00:00:50;;;;;;;0.83;0.80;;;13.90;96.30;13.10;96525.00;;;;5114502;28;20206;-50
2022/10/17 00:03:18;;;;;;;1.53;1.43;;;13.80;95.90;13.00;96511.00;;;;5114427;28;20213;-53
2022/10/17 00:05:47;;;;;;;0.60;0.60;;;13.70;95.80;12.90;96523.00;;;;5114574;28;20196;-50
2022/10/17 00:08:17;;;;;;;0.63;0.63;;;13.70;95.60;13.00;96524.00;;;;5114390;28;20222;-51
2022/10/17 00:10:55;;;;;;;0.90;0.90;;;13.60;95.80;13.00;96523.00;;;;5114442;28;20668;-50
2022/10/17 00:13:22;;;;;;;0.53;0.53;;;13.70;96.00;12.90;96532.00;;;;5114297;28;20275;-51
2022/10/17 00:15:48;;;;;;;0.60;0.60;;;13.70;96.10;12.90;96519.00;;;;5114284;28;20225;-51
2022/10/17 00:18:14;;;;;;;0.63;0.63;;;13.60;96.40;13.00;96517.00;;;;5114203;28;20245;-51
2022/10/17 00:20:41;;;;;;;0.87;0.87;;;13.70;96.70;13.10;96523.00;;;;5114369;28;20202;-52
2022/10/17 00:23:07;;;;;;;0.70;0.70;;;13.80;96.50;13.10;96522.00;;;;5114513;28;20190;-53
2022/10/17 00:25:35;;;;;;;0.93;0.93;;;13.70;96.40;13.00;96527.00;;;;5114522;28;20532;-53
2022/10/17 00:28:02;;;;;;;0.60;0.60;;;13.70;95.80;13.00;96525.00;;;;5114341;28;20190;-51
2022/10/17 00:30:31;;;;;;;0.97;0.97;;;13.70;95.80;13.00;96526.00;;;;5114063;28;20221;-50
2022/10/17 00:32:58;;;;;;;0.93;0.93;;;13.60;95.30;12.90;96533.00;;;;5113058;28;20201;-50
2022/10/17 00:35:24;;;;;;;0.60;0.60;;;13.60;95.20;12.90;96538.00;;;;5114007;28;20189;-50
2022/10/17 00:37:50;;;;;;;0.67;0.67;;;13.60;95.50;12.90;96537.00;;;;5113980;28;20669;-51
2022/10/17 00:40:17;;;;;;;0.90;0.90;;;13.60;95.90;12.90;96521.00;;;;5113916;28;20221;-51
2022/10/17 00:42:44;;;;;;;0.50;0.50;;;13.60;96.00;12.90;96532.00;;;;5096134;28;20643;-51
2022/10/17 00:45:21;;;;;;;1.20;1.20;;;13.60;97.10;12.90;96543.00;;;;5114122;28;20201;-51
2022/10/17 00:47:53;;;;;;;0.50;0.50;;;13.60;96.50;12.70;96542.00;;;;5114028;28;20263;-51
2022/10/17 00:50:20;;;;;;;1.40;1.33;;;13.40;95.30;12.50;96543.00;;;;5114207;28;20198;-51
2022/10/17 00:52:48;;;;;;;0.67;0.67;;;13.30;96.00;12.50;96534.00;;;;5113892;28;20214;-51
2022/10/17 00:55:21;;;;;;;0.60;0.60;;;13.20;96.10;12.40;96537.00;;;;5113888;28;20380;-51
2022/10/17 00:57:50;;;;;;;0.50;0.50;;;13.20;96.30;12.20;96544.00;;;;5112701;28;20218;-51
2022/10/17 01:00:18;;;;;;;0.90;0.90;;;13.00;96.20;12.30;96543.00;;;;5113820;28;20232;-51
2022/10/17 01:02:45;;;;;;;0.70;0.70;;;13.00;96.90;12.30;96541.00;;;;5113671;28;20288;-51
2022/10/17 01:05:14;;;;;;;1.00;1.00;;;13.00;97.00;12.30;96534.00;;;;5113806;28;20567;-52
2022/10/17 01:07:42;;;;;;;0.83;0.83;;;13.00;97.20;12.20;96552.00;;;;5113759;28;20280;-51
2022/10/17 01:10:13;;;;;;;0.67;0.67;;;13.00;96.80;12.00;96542.00;;;;5113778;28;20298;-52
2022/10/17 01:12:56;;;;;;;0.70;0.70;;;12.80;96.80;11.90;96546.00;;;;5117294;28;20209;-51
2022/10/17 01:15:40;;;;;;;0.80;0.80;;;12.70;97.90;12.00;96541.00;;;;5117289;28;20226;-51
2022/10/17 01:18:21;;;;;;;0.73;0.73;;;12.70;98.30;12.10;96541.00;;;;5117139;28;20281;-50
2022/10/17 01:21:34;;;;;;;0.70;0.70;;;12.80;98.20;12.10;96542.00;;;;5117121;28;20251;-50
2022/10/17 01:24:52;;;;;;;1.13;0.80;;;12.90;98.20;12.00;96542.00;;;;5117168;28;20198;-50
2022/10/17 01:28:06;;;;;;;0.67;0.67;;;12.80;98.30;11.90;96552.00;;;;5116993;28;20710;-50
2022/10/17 01:31:07;;;;;;;0.93;0.93;;;12.60;98.00;11.90;96546.00;;;;5117001;28;20209;-50
2022/10/17 01:33:53;;;;;;;0.50;0.50;;;12.60;98.50;11.80;96552.00;;;;5117088;28;20225;-50
2022/10/17 01:36:34;;;;;;;0.80;0.80;;;12.50;98.30;11.50;96541.00;;;;5117031;28;20201;-50
2022/10/17 01:39:14;;;;;;;0.67;0.67;;;12.50;98.20;11.60;96550.00;;;;5116794;28;20265;-50
2022/10/17 01:41:49;;;;;;;0.57;0.57;;;12.40;99.00;11.60;96553.00;;;;5116781;28;20189;-50
2022/10/17 01:44:26;;;;;;;0.73;0.73;;;12.40;99.00;11.60;96547.00;;;;5116747;28;20639;-50
2022/10/17 01:47:01;;;;;;;1.17;1.10;;;12.30;98.90;11.50;96544.00;;;;5098729;28;20202;-51
2022/10/17 01:49:31;;;;;;;0.70;0.70;;;12.30;99.10;11.50;96546.00;;;;5116591;28;20221;-51
2022/10/17 01:52:07;;;;;;;1.17;1.17;;;12.20;99.30;11.50;96546.00;;;;5116763;28;20204;-50
2022/10/17 01:54:41;;;;;;;0.73;0.73;;;12.20;99.60;11.50;96545.00;;;;5116482;28;20240;-51
2022/10/17 01:57:17;;;;;;;0.90;0.90;;;12.10;99.90;11.40;96549.00;;;;5116546;28;20232;-51
2022/10/17 01:59:49;;;;;;;0.50;0.50;;;12.10;99.90;11.30;96532.00;;;;5116500;28;20282;-52
2022/10/17 02:02:19;;;;;;;0.60;0.60;;;12.00;99.90;11.20;96539.00;;;;5116745;28;20217;-51
2022/10/17 02:04:49;;;;;;;0.60;0.60;;;11.90;99.90;11.20;96532.00;;;;5116457;28;20304;-51
2022/10/17 02:07:15;;;;;;;0.60;0.60;;;11.90;99.90;11.30;96530.00;;;;5116394;28;20217;-54
2022/10/17 02:09:42;;;;;;;0.60;0.60;;;11.90;99.90;11.20;96530.00;;;;5116391;28;20217;-56
2022/10/17 02:12:41;;;;;;;0.63;0.63;;;12.00;99.90;11.10;96537.00;;;;5098204;28;20296;-51
2022/10/17 02:15:38;;;;;;;0.80;0.80;;;11.90;99.90;11.20;96519.00;;;;5116293;28;20198;-52
2022/10/17 02:18:27;;;;;;;0.63;0.63;;;11.90;99.90;11.10;96528.00;;;;5116251;28;20251;-51
2022/10/17 02:21:01;;;;;;;1.20;1.10;;;11.80;99.90;11.10;96530.00;;;;5116288;28;20244;-51
2022/10/17 02:23:41;;;;;;;0.60;0.60;;;11.80;99.90;11.10;96531.00;;;;5114871;28;20223;-53
2022/10/17 02:26:18;;;;;;;0.50;0.50;;;11.80;99.90;11.00;96533.00;;;;5116028;28;20284;-54
2022/10/17 02:28:53;;;;;;;0.60;0.60;;;11.80;99.90;11.00;96532.00;;;;5116054;28;20222;-55
2022/10/17 02:31:25;;;;;;;0.90;0.90;;;11.80;99.90;11.00;96531.00;;;;5116024;28;20280;-57
2022/10/17 02:34:01;;;;;;;0.70;0.70;;;11.80;99.90;11.10;96535.00;;;;5115960;28;20300;-54
2022/10/17 02:36:36;;;;;;;1.10;1.10;;;11.80;99.90;11.00;96521.00;;;;5115989;28;20280;-54
2022/10/17 02:39:05;;;;;;;0.80;0.80;;;11.80;99.90;11.10;96547.00;;;;5115909;28;20278;-54
2022/10/17 02:41:33;;;;;;;0.50;0.50;;;11.80;99.90;11.00;96543.00;;;;5115002;28;20206;-53
2022/10/17 02:44:02;;;;;;;0.73;0.73;;;11.70;99.80;11.00;96541.00;;;;5115911;28;20204;-51
2022/10/17 02:46:32;;;;;;;0.67;0.67;;;11.70;99.50;11.00;96530.00;;;;5115727;28;20189;-51
2022/10/17 02:49:07;;;;;;;10.30;1.17;;;11.70;99.80;10.90;96536.00;;;;5115711;28;20277;-58
2022/10/17 02:51:44;;;;;;;0.50;0.50;;;11.60;99.70;10.90;96538.00;;;;5097712;28;20280;-51
2022/10/17 02:54:18;;;;;;;0.73;0.73;;;11.60;99.60;10.90;96530.00;;;;5115635;28;20618;-52
2022/10/17 02:56:52;;;;;;;0.77;0.77;;;11.60;99.60;10.90;96543.00;;;;5115600;28;20229;-51
2022/10/17 02:59:22;;;;;;;0.80;0.80;;;11.60;99.30;10.70;96537.00;;;;5115610;28;20190;-51
2022/10/17 03:01:50;;;;;;;0.60;0.60;;;11.50;98.20;10.70;96551.00;;;;5115602;28;20301;-51
2022/10/17 03:04:18;;;;;;;0.80;0.80;;;11.50;98.70;10.80;96539.00;;;;5115454;28;20208;-51
2022/10/17 03:06:47;;;;;;;0.60;0.60;;;11.50;99.20;10.80;96543.00;;;;5115364;28;20209;-51
2022/10/17 03:09:14;;;;;;;0.70;0.70;;;11.50;98.80;10.80;96549.00;;;;5115506;28;20186;-51
2022/10/17 03:11:42;;;;;;;0.70;0.70;;;11.60;98.60;10.70;96543.00;;;;5115306;28;20279;-51
2022/10/17 03:14:08;;;;;;;0.80;0.80;;;11.50;98.10;10.60;96534.00;;;;5115399;28;20202;-51
2022/10/17 03:16:35;;;;;;;0.60;0.60;;;11.40;98.50;10.50;96536.00;;;;5097108;28;20237;-51
2022/10/17 03:19:01;;;;;;;0.60;0.60;;;11.30;98.70;10.50;96542.00;;;;5097326;28;20685;-51
2022/10/17 03:21:28;;;;;;;0.83;0.83;;;11.30;99.30;10.50;96537.00;;;;5115377;28;20256;-52
2022/10/17 03:23:55;;;;;;;0.53;0.53;;;11.30;99.40;10.50;96544.00;;;;5115252;28;20201;-51
2022/10/17 03:26:21;;;;;;;0.50;0.50;;;11.30;99.30;10.50;96533.00;;;;5115013;28;20282;-51
2022/10/17 03:28:48;;;;;;;0.50;0.50;;;11.30;99.10;10.50;96549.00;;;;5115097;28;20666;-51
2022/10/17 03:31:16;;;;;;;0.90;0.90;;;11.30;99.30;10.50;96523.00;;;;5114821;28;20214;-50
2022/10/17 03:33:43;;;;;;;0.70;0.70;;;11.20;99.40;10.60;96546.00;;;;5114731;28;20655;-52
2022/10/17 03:36:14;;;;;;;0.60;0.60;;;11.30;99.20;10.50;96542.00;;;;5114915;28;20281;-51
2022/10/17 03:38:42;;;;;;;0.90;0.90;;;11.30;98.80;10.50;96546.00;;;;5097154;28;20232;-51
2022/10/17 03:41:12;;;;;;;0.50;0.50;;;11.30;98.20;10.50;96547.00;;;;5115226;28;20220;-51
2022/10/17 03:43:38;;;;;;;0.63;0.63;;;11.20;98.20;10.50;96554.00;;;;5114800;28;20202;-51
2022/10/17 03:46:07;;;;;;;0.83;0.83;;;11.20;98.30;10.40;96555.00;;;;5114941;28;20625;-52
2022/10/17 03:48:34;;;;;;;1.00;1.00;;;11.20;97.80;10.40;96562.00;;;;5114809;28;20613;-51
2022/10/17 03:51:03;;;;;;;0.70;0.70;;;11.10;98.10;10.40;96562.00;;;;5113696;28;20545;-53
2022/10/17 03:53:30;;;;;;;0.73;0.73;;;11.10;98.30;10.40;96563.00;;;;5114752;28;20829;-51
2022/10/17 03:56:11;;;;;;;0.50;0.50;;;11.10;98.00;10.30;96565.00;;;;5114665;28;20693;-51
2022/10/17 03:58:37;;;;;;;0.63;0.63;;;11.10;97.70;10.30;96573.00;;;;5114773;28;20259;-51
2022/10/17 04:01:04;;;;;;;0.50;0.50;;;11.00;97.70;10.30;96574.00;;;;5114667;28;20289;-51
2022/10/17 04:03:31;;;;;;;0.90;0.90;;;11.10;98.00;10.40;96571.00;;;;5114602;28;20190;-51
2022/10/17 04:05:59;;;;;;;0.67;0.67;;;11.10;98.10;10.40;96575.00;;;;5114567;28;20214;-51
2022/10/17 04:08:25;;;;;;;0.80;0.80;;;11.20;97.90;10.40;96576.00;;;;5096772;28;20198;-50
2022/10/17 04:10:52;;;;;;;1.00;1.00;;;11.10;97.90;10.40;96581.00;;;;5096633;28;20212;-52
2022/10/17 04:13:19;;;;;;;0.60;0.60;;;11.10;97.40;10.20;96580.00;;;;5114302;28;20818;-51
2022/10/17 04:15:54;;;;;;;1.83;1.73;;;11.10;97.50;10.40;96587.00;;;;5114322;28;20271;-51
2022/10/17 04:18:21;;;;;;;0.60;0.60;;;11.00;97.60;10.30;96589.00;;;;5114153;28;20313;-52
2022/10/17 04:20:47;;;;;;;0.87;0.87;;;11.00;97.00;10.30;96582.00;;;;5114223;28;20291;-50
2022/10/17 04:23:13;;;;;;;1.37;1.27;;;11.00;97.30;10.30;96590.00;;;;5114226;28;20229;-51
2022/10/17 04:25:40;;;;;;;0.60;0.60;;;11.00;97.50;10.20;96584.00;;;;5114289;28;20288;-51
2022/10/17 04:28:06;;;;;;;0.70;0.70;;;11.00;96.70;10.20;96589.00;;;;5096615;28;20548;-51
2022/10/17 04:30:33;;;;;;;0.80;0.80;;;10.90;98.00;10.20;96594.00;;;;5114323;28;20414;-51
2022/10/17 04:33:00;;;;;;;0.60;0.60;;;11.00;98.00;10.20;96593.00;;;;5113893;28;20247;-51
2022/10/17 04:35:29;;;;;;;0.63;0.63;;;10.90;98.00;10.30;96592.00;;;;5096197;28;20223;-53
2022/10/17 04:37:55;;;;;;;0.70;0.70;;;11.00;98.20;10.30;96590.00;;;;5095910;28;20226;-51
2022/10/17 04:40:24;;;;;;;0.67;0.67;;;11.00;98.20;10.30;96601.00;;;;5113965;28;20202;-51
2022/10/17 04:42:52;;;;;;;0.53;0.53;;;11.00;98.50;10.40;96589.00;;;;5113899;28;20250;-51
2022/10/17 04:45:19;;;;;;;1.10;1.10;;;11.10;99.60;10.60;96586.00;;;;5113115;28;20210;-49
2022/10/17 04:47:46;;;;;;;0.60;0.60;;;11.30;99.90;10.40;96593.00;;;;5113735;28;20217;-48
2022/10/17 04:50:12;;;;;;;0.50;0.50;;;11.20;99.40;10.50;96598.00;;;;5113746;28;20194;-49
2022/10/17 04:52:39;;;;;;;1.00;1.00;;;11.30;99.60;10.60;96585.00;;;;5113683;28;20649;-49
2022/10/17 04:55:06;;;;;;;1.70;1.20;;;11.30;99.10;10.70;96595.00;;;;5113863;28;20194;-50
2022/10/17 04:57:34;;;;;;;0.70;0.70;;;11.40;98.80;10.60;96592.00;;;;5113568;28;20597;-50
2022/10/17 05:00:01;;;;;;;0.60;0.60;;;11.40;97.40;10.60;96585.00;;;;5113861;28;20201;-49
2022/10/17 05:02:30;;;;;;;0.70;0.70;;;11.30;96.70;10.50;96580.00;;;;5095551;28;20548;-49
2022/10/17 05:04:57;;;;;;;0.70;0.70;;;11.30;96.10;10.50;96577.00;;;;5113650;28;20198;-49
2022/10/17 05:07:25;;;;;;;0.90;0.90;;;11.20;95.60;10.30;96585.00;;;;5095636;28;20278;-50
2022/10/17 05:09:52;;;;;;;3.07;2.87;;;11.10;95.00;10.30;96587.00;;;;5113633;28;20206;-50
2022/10/17 05:12:18;;;;;;;7.27;4.87;;;11.00;95.30;10.20;96587.00;;;;5113687;28;20194;-50
2022/10/17 05:14:45;;;;;;;12.10;9.07;;;11.00;95.10;10.30;96582.00;;;;5113515;28;20275;-50
2022/10/17 05:17:11;;;;;;;2.30;2.10;;;11.00;95.80;10.30;96585.00;;;;5113587;28;20220;-50
2022/10/17 05:19:37;;;;;;;0.70;0.70;;;11.00;95.60;10.20;96582.00;;;;5113517;28;20202;-51
2022/10/17 05:22:04;;;;;;;1.00;1.00;;;10.90;95.50;10.20;96586.00;;;;5113502;28;20247;-50
2022/10/17 05:24:31;;;;;;;0.70;0.70;;;10.90;95.40;9.80;96587.00;;;;5113518;28;20219;-50
2022/10/17 05:26:57;;;;;;;0.70;0.70;;;10.70;94.70;9.80;96582.00;;;;5113477;28;20276;-50
2022/10/17 05:29:24;;;;;;;0.60;0.60;;;10.60;96.30;9.90;96594.00;;;;5113424;28;20226;-50
2022/10/17 05:31:50;;;;;;;0.90;0.90;;;10.70;97.10;9.90;96592.00;;;;5113371;28;20190;-50
2022/10/17 05:34:17;;;;;;;0.53;0.53;;;10.70;96.80;9.60;96596.00;;;;5113230;28;20687;-50
2022/10/17 05:36:43;;;;;;;0.60;0.60;;;10.50;96.60;9.60;96598.00;;;;5113401;28;20212;-50
2022/10/17 05:39:12;;;;;;;0.50;0.50;;;10.50;98.10;9.70;96604.00;;;;5113196;28;20226;-50
2022/10/17 05:41:38;;;;;;;0.80;0.80;;;10.50;98.60;9.80;96601.00;;;;5113206;28;20190;-51
2022/10/17 05:44:05;;;;;;;0.70;0.70;;;10.50;98.70;9.80;96595.00;;;;5095064;28;20579;-50
2022/10/17 05:46:31;;;;;;;0.70;0.70;;;10.60;99.40;9.80;96604.00;;;;5113362;28;20198;-51
2022/10/17 05:48:58;;;;;;;1.03;1.03;;;10.60;98.40;9.80;96606.00;;;;5113199;28;20214;-50
2022/10/17 05:51:24;;;;;;;1.33;1.23;;;10.60;98.00;9.80;96609.00;;;;5113170;28;20208;-50
2022/10/17 05:53:50;;;;;;;1.63;1.53;;;10.60;97.80;9.80;96609.00;;;;5113118;28;20308;-51
2022/10/17 05:56:20;;;;;;;0.70;0.70;;;10.50;97.80;9.80;96613.00;;;;5113125;28;20551;-51
2022/10/17 05:58:47;;;;;;;0.70;0.70;;;10.60;98.00;9.90;96613.00;;;;5098562;28;20317;-51
2022/10/17 06:01:14;;;;;;;0.63;0.63;;;10.70;98.10;10.00;96603.00;;;;5116451;28;20221;-53
2022/10/17 06:03:40;;;;;;;0.60;0.60;;;10.70;98.10;10.00;96617.00;;;;5116527;28;20230;-51
2022/10/17 06:06:10;;;;;;;0.60;0.60;;;10.70;98.30;10.10;96611.00;;;;5098514;28;20271;-52
2022/10/17 06:08:37;;;;;;;1.10;1.10;;;10.80;98.50;10.20;96623.00;;;;5116362;28;20273;-51
2022/10/17 06:11:04;;;;;;;0.60;0.60;;;10.80;98.60;10.20;96623.00;;;;5100077;28;20225;-51
2022/10/17 06:13:31;;;;;;;0.70;0.70;;;10.90;98.90;10.30;96610.00;;;;5099888;28;20641;-51
2022/10/17 06:15:58;;;;;;;0.70;0.70;;;11.00;99.10;10.30;96624.00;;;;5116298;28;20202;-51
2022/10/17 06:18:25;;;;;;;0.70;0.70;;;11.10;98.50;10.40;96617.00;;;;5116240;28;20225;-51
2022/10/17 06:20:51;;;;;;;1.00;1.00;;;11.10;98.30;10.40;96618.00;;;;5116463;28;20645;-52
2022/10/17 06:23:18;;;;;;;0.80;0.80;;;11.20;97.40;10.40;96635.00;;;;5116334;28;20198;-52
2022/10/17 06:25:47;;;;;;;0.87;0.87;;;11.10;96.70;10.20;96636.00;;;;5116161;28;20194;-51
2022/10/17 06:28:14;;;;;;;0.80;0.80;;;10.90;95.60;10.10;96638.00;;;;5116087;28;20653;-50
2022/10/17 06:30:43;;;;;;;0.80;0.80;;;10.80;96.30;10.10;96649.00;;;;5098031;28;20513;-51
2022/10/17 06:33:10;;;;;;;1.10;1.10;;;10.80;96.50;10.20;96645.00;;;;5116050;28;20194;-50
2022/10/17 06:35:36;;;;;;;1.17;1.17;;;10.90;96.50;10.30;96656.00;;;;5116036;28;20547;-51
2022/10/17 06:38:05;;;;;;;0.80;0.80;;;11.00;96.50;10.40;96654.00;;;;5115825;28;20225;-51
2022/10/17 06:40:32;;;;;;;0.73;0.73;;;11.00;96.40;10.50;96658.00;;;;5115915;28;20675;-51
2022/10/17 06:42:58;;;;;;;1.70;1.00;;;11.10;96.10;10.50;96654.00;;;;5115909;28;20492;-51
2022/10/17 06:45:24;;;;;;;0.63;0.63;;;11.20;95.20;10.50;96667.00;;;;5115707;28;20300;-51
2022/10/17 06:47:52;;;;;;;0.80;0.80;;;11.20;95.60;10.60;96669.00;;;;5115857;28;20182;-52
2022/10/17 06:50:18;;;;;;;0.60;0.60;;;11.30;95.10;10.50;96674.00;;;;5097776;28;20226;-54
2022/10/17 06:52:44;;;;;;;0.70;0.70;;;11.20;95.00;10.60;96678.00;;;;5115751;28;20194;-51
2022/10/17 06:55:11;;;;;;;0.70;0.70;;;11.30;96.10;10.70;96680.00;;;;5115617;28;20228;-51
2022/10/17 06:57:37;;;;;;;1.57;0.90;;;11.40;94.80;10.80;96669.00;;;;5097691;28;20266;-51
2022/10/17 07:00:05;;;;;;;1.27;1.27;;;11.40;95.00;10.90;96681.00;;;;5115618;28;20233;-51
2022/10/17 07:02:32;;;;;;;0.80;0.80;;;;;10.90;96678.00;;;;5115568;28;20653;-51
2022/10/17 07:05:02;;;;;;;1.40;1.40;;;11.50;94.10;11.00;96681.00;;;;5115431;28;20684;-51
2022/10/17 07:07:31;;;;;;;1.03;1.03;;;11.60;95.30;11.20;96691.00;;;;5115474;28;20281;-52
2022/10/17 07:09:57;;;;;;;0.80;0.80;;;11.70;95.20;11.20;96678.00;;;;5114936;28;20222;-50
2022/10/17 07:12:24;;;;;;;0.97;0.97;;;11.90;95.30;11.30;96685.00;;;;5115232;28;20229;-51
2022/10/17 07:14:50;;;;;;;0.50;0.50;;;11.90;95.20;11.40;96686.00;;;;5115380;28;20668;-51
2022/10/17 07:17:17;;;;;;;1.33;1.33;;;12.00;96.10;11.50;96698.00;;;;5115209;28;20250;-51
2022/10/17 07:19:44;;;;;;;6.07;1.00;;;12.10;95.90;11.70;96701.00;;;;5115184;28;20220;-51
2022/10/17 07:22:12;;;;;;;0.93;0.93;;;12.20;96.70;11.80;96692.00;;;;5115225;28;20272;-50
2022/10/17 07:24:38;;;;;;;0.60;0.60;;;12.40;96.10;11.90;96701.00;;;;5115085;28;20225;-51
2022/10/17 07:27:05;;;;;;;0.63;0.63;;;12.50;96.30;12.10;96703.00;;;;5115093;28;20226;-51
2022/10/17 07:29:31;;;;;;;0.70;0.70;;;12.60;96.00;12.30;96702.00;;;;5115199;28;20296;-51
2022/10/17 07:31:57;;;;;;;0.73;0.73;;;12.80;95.20;12.30;96701.00;;;;5115068;28;20516;-50
2022/10/17 07:34:26;;;;;;;0.70;0.70;;;12.90;95.20;12.40;96702.00;;;;5114968;28;20285;-50
2022/10/17 07:36:52;;;;;;;0.80;0.80;;;13.00;95.40;12.50;96703.00;;;;5114993;28;20182;-51
2022/10/17 07:39:20;;;;;;;0.90;0.90;;;13.10;95.50;12.60;96707.00;;;;5114814;28;20304;-51
2022/10/17 07:41:47;;;;;;;0.60;0.60;;;;;12.60;96710.00;;;;5114935;28;20629;-51
2022/10/17 07:44:14;;;;;;;1.03;1.03;;;13.20;95.00;12.70;96711.00;;;;5114876;28;20221;-51
2022/10/17 07:46:40;;;;;;;1.00;1.00;;;13.30;95.90;12.80;96721.00;;;;5114975;28;20582;-51
2022/10/17 07:49:07;;;;;;;2.03;1.33;;;13.30;95.60;12.90;96709.00;;;;5114829;28;20266;-51
2022/10/17 07:51:33;;;;;;;0.70;0.70;;;13.50;95.70;12.90;96711.00;;;;5114757;28;20345;-51
2022/10/17 07:54:00;;;;;;;0.70;0.70;;;13.50;95.50;13.10;96710.00;;;;5114863;28;20221;-51
2022/10/17 07:56:29;;;;;;;1.90;0.90;;;13.60;95.70;13.30;96715.00;;;;5114643;28;20230;-51
2022/10/17 07:58:57;;;;;;;0.80;0.80;;;13.80;95.60;13.20;96709.00;;;;5114581;28;20657;-54
2022/10/17 08:01:24;;;;;;;0.77;0.77;;;13.80;95.70;13.40;96713.00;;;;5114478;28;20250;-51
2022/10/17 08:03:51;;;;;;;0.80;0.80;;;13.90;96.40;13.40;96708.00;;;;5114685;28;20195;-51
2022/10/17 08:06:18;;;;;;;1.07;1.07;;;14.00;95.80;13.50;96707.00;;;;5096896;28;20333;-51
2022/10/17 08:08:44;;;;;;;0.90;0.90;;;14.10;96.00;13.60;96719.00;;;;5114611;28;20217;-52
2022/10/17 08:11:13;;;;;;;0.90;0.90;;;14.20;95.60;13.70;96717.00;;;;5114730;28;20214;-50
2022/10/17 08:13:41;;;;;;;2.80;1.43;;;14.30;95.40;13.80;96722.00;;;;5114391;28;20308;-55
2022/10/17 08:16:11;;;;;;;1.30;1.20;;;14.40;94.50;14.00;96722.00;;;;5114459;28;20276;-51
2022/10/17 08:18:40;;;;;;;0.90;0.90;;;14.50;95.10;14.10;96719.00;;;;5096444;28;20370;-51
2022/10/17 08:21:07;;;;;;;1.47;1.37;;;14.70;93.90;14.30;96721.00;;;;5113108;28;20284;-51
2022/10/17 08:23:35;;;;;;;0.80;0.80;;;14.80;94.20;14.40;96719.00;;;;5114382;28;20543;-51
2022/10/17 08:26:04;;;;;;;1.60;1.00;;;14.90;94.30;14.60;96722.00;;;;5114153;28;20290;-51
2022/10/17 08:28:33;;;;;;;2.83;2.63;;;15.10;94.40;14.80;96721.00;;;;5114212;28;20213;-51
2022/10/17 08:31:04;;;;;;;2.93;2.27;;;15.30;93.90;15.00;96723.00;;;;5114159;28;20280;-51
2022/10/17 08:33:32;;;;;;;0.60;0.60;;;15.40;93.50;15.20;96719.00;;;;5096481;28;20526;-51
2022/10/17 08:35:59;;;;;;;0.60;0.60;;;15.70;92.70;15.60;96720.00;;;;5096479;28;20268;-51
2022/10/17 08:38:25;;;;;;;0.77;0.77;;;16.00;90.10;15.70;96725.00;;;;5114072;28;20253;-51
2022/10/17 08:40:52;;;;;;;0.50;0.50;;;16.10;89.70;15.90;96725.00;;;;5112974;28;20193;-52
2022/10/17 08:43:36;;;;;;;0.60;0.60;;;16.30;90.20;16.00;96724.00;;;;5113944;28;20296;-51
2022/10/17 08:46:07;;;;;;;0.73;0.73;;;16.40;88.50;16.10;96702.00;;;;5114169;28;20205;-51
2022/10/17 08:48:39;;;;;;;0.70;0.70;;;16.60;87.20;16.20;96726.00;;;;5095968;28;20321;-52
2022/10/17 08:51:13;;;;;;;0.60;0.60;;;16.70;87.00;16.50;96735.00;;;;5113923;28;20182;-53
2022/10/17 08:53:48;;;;;;;1.13;0.70;;;16.80;87.50;16.60;96740.00;;;;5113817;28;20193;-58
2022/10/17 08:56:22;;;;;;;0.40;0.40;;;17.00;87.10;16.40;96712.00;;;;5113857;28;20225;-51
2022/10/17 08:58:49;;;;;;;0.50;0.50;;;17.00;85.90;16.40;96733.00;;;;5113908;28;20227;-51
2022/10/17 09:01:33;;;;;;;0.50;0.50;;;17.00;84.40;16.60;96731.00;;;;5113811;28;20194;-53
2022/10/17 09:04:48;;;;;;;0.60;0.60;;;17.00;84.90;16.90;96727.00;;;;5113770;28;20198;-51
2022/10/17 09:07:24;;;;;;;1.10;1.10;;;17.20;84.20;17.10;96728.00;;;;5091374;28;20333;-51
2022/10/17 09:10:08;;;;;;;0.70;0.70;;;17.50;82.40;17.20;96722.00;;;;5113737;28;20190;-51
2022/10/17 09:12:45;;;;;;;0.63;0.63;;;17.60;81.70;17.30;96728.00;;;;5113817;28;20236;-51
2022/10/17 09:15:35;;;;;;;0.50;0.50;;;17.70;83.30;17.20;96732.00;;;;5113870;28;20280;-51
2022/10/17 09:18:10;;;;;;;0.57;0.57;;;17.70;82.60;17.40;96724.00;;;;5113521;28;20249;-51
2022/10/17 09:20:43;;;;;;;0.70;0.70;;;17.80;81.10;17.60;96726.00;;;;5113576;28;20285;-52
2022/10/17 09:23:16;;;;;;;0.50;0.50;;;18.00;81.30;17.70;96727.00;;;;5113546;28;20213;-51
2022/10/17 09:25:46;;;;;;;0.50;0.50;;;18.10;80.60;17.70;96728.00;;;;5113564;28;20281;-51
2022/10/17 09:28:20;;;;;;;0.80;0.80;;;18.20;79.90;17.80;96720.00;;;;5113343;28;20198;-52
2022/10/17 09:30:55;;;;;;;0.40;0.40;;;18.30;80.60;18.00;96729.00;;;;5113440;28;20202;-50
2022/10/17 09:33:27;;;;;;;0.50;0.50;;;18.50;79.40;18.10;96729.00;;;;5116500;28;20193;-50
2022/10/17 09:35:56;;;;;;;0.40;0.40;;;18.50;79.00;18.20;96720.00;;;;5116906;28;20228;-51
2022/10/17 09:38:27;;;;;;;0.40;0.40;;;18.60;79.00;18.40;96745.00;;;;5116761;28;20221;-52
2022/10/17 09:40:58;;;;;;;0.50;0.50;;;18.80;76.30;18.30;96744.00;;;;5116760;28;20314;-51
2022/10/17 09:43:25;;;;;;;0.50;0.50;;;18.80;77.20;18.30;96734.00;;;;5116829;28;20229;-49
2022/10/17 09:46:05;;;;;;;0.60;0.60;;;18.70;75.90;18.40;96740.00;;;;5116877;28;20233;-50
2022/10/17 09:48:39;;;;;;;0.60;0.60;;;18.70;76.50;18.40;96732.00;;;;5116827;28;20205;-50
2022/10/17 09:51:07;;;;;;;0.63;0.63;;;18.90;75.90;18.50;96740.00;;;;5116583;28;20225;-50
2022/10/17 09:53:39;;;;;;;1.43;1.33;;;18.90;76.70;18.60;96734.00;;;;5116650;28;20293;-51
2022/10/17 09:56:12;;;;;;;0.50;0.50;;;19.00;74.20;18.80;96735.00;;;;5116585;28;20204;-50
2022/10/17 09:58:45;;;;;;;0.60;0.60;;;19.10;75.50;19.10;96743.00;;;;5116409;28;20214;-51
2022/10/17 10:01:19;;;;;;;0.63;0.63;;;19.60;73.30;19.30;96753.00;;;;5116655;28;20205;-53
2022/10/17 10:03:47;;;;;;;0.60;0.60;;;;;19.50;96751.00;;;;5116395;28;20221;-50
2022/10/17 10:06:15;;;;;;;0.50;0.50;;;;;19.60;96743.00;;;;5116454;28;20201;-50
2022/10/17 10:08:53;;;;;;;0.80;0.80;;;20.00;68.90;19.80;96743.00;;;;5116362;28;20630;-58
2022/10/17 10:11:25;;;;;;;0.50;0.50;;;20.20;69.00;20.00;96740.00;;;;5116358;28;20251;-50
2022/10/17 10:13:52;;;;;;;0.80;0.80;;;20.30;68.40;20.20;96743.00;;;;5098275;28;20233;-50
2022/10/17 10:16:23;;;;;;;0.57;0.57;;;20.50;67.20;20.20;96743.00;;;;5116279;28;20245;-50
2022/10/17 10:18:52;;;;;;;1.17;0.80;;;20.60;64.90;20.30;96753.00;;;;5116214;28;20202;-50
2022/10/17 10:21:21;;;;;;;0.50;0.50;;;20.70;63.60;20.50;96746.00;;;;5116116;28;20300;-50
2022/10/17 10:24:12;;;;;;;0.57;0.57;;;20.90;63.90;20.70;96748.00;;;;5116267;28;20505;-51
2022/10/17 10:26:42;;;;;;;0.80;0.80;;;21.00;62.60;20.80;96755.00;;;;5116080;28;20245;-53
2022/10/17 10:29:25;;;;;;;1.03;1.03;;;21.20;61.70;20.90;96743.00;;;;5116192;28;20230;-51
2022/10/17 10:31:53;;;;;;;0.57;0.57;;;21.30;60.50;21.00;96747.00;;;;5116002;28;20202;-50
2022/10/17 10:34:26;;;;;;;0.60;0.60;;;21.40;62.30;21.20;96753.00;;;;5116155;28;20306;-51
2022/10/17 10:37:01;;;;;;;0.73;0.73;;;21.60;61.30;21.30;96752.00;;;;5115978;28;20214;-50
2022/10/17 10:39:40;;;;;;;0.50;0.50;;;21.60;59.60;21.40;96753.00;;;;5098163;28;20237;-51
2022/10/17 10:42:21;;;;;;;0.50;0.50;;;21.80;58.10;21.60;96733.00;;;;5116030;28;20200;-50
2022/10/17 10:44:50;;;;;;;0.73;0.70;;;21.90;57.00;21.70;96741.00;;;;5113855;28;20320;-51
2022/10/17 10:47:24;;;;;;;1.07;0.97;;;22.10;55.50;22.10;96735.00;;;;5097994;28;20238;-51
2022/10/17 10:50:07;;;;;;;0.77;0.77;;;22.30;53.30;22.10;96740.00;;;;5115806;28;20229;-51
2022/10/17 10:52:45;;;;;;;1.00;1.00;;;22.40;51.70;22.30;96739.00;;;;5115820;28;20221;-52
2022/10/17 10:55:24;;;;;;;0.60;0.60;;;22.60;50.50;22.40;96739.00;;;;5115785;28;20213;-51
2022/10/17 10:58:05;;;;;;;0.60;0.60;;;22.70;49.90;22.50;96719.00;;;;5115645;28;20673;-52
2022/10/17 11:00:37;;;;;;;0.60;0.60;;;22.80;49.70;22.70;96747.00;;;;5097609;28;20641;-53
2022/10/17 11:03:14;;;;;;;1.17;1.10;;;23.00;49.50;22.80;96747.00;;;;5115647;28;20262;-54
2022/10/17 11:05:49;;;;;;;0.52;0.52;;;23.10;46.90;23.10;96748.00;;;;5115680;28;20285;-51
2022/10/17 11:08:25;;;;;;;0.43;0.43;;;23.30;46.00;23.30;96746.00;;;;5115434;28;20213;-53
2022/10/17 11:11:16;;;;;;;0.57;0.57;;;23.50;45.80;23.40;96743.00;;;;5115703;28;20292;-52